Ulqini, Montenegro

02:58 AM CET on dhjetor 08, 2016 (GMT +0100)
Montenegro Apartments UTJEHA | | Change Station

Elev 148 ft 42.00 °N, 19.15 °E | Updated 15 seconds ago

Clear
i kthjellet
43.7 °F
Feels Like 38 °F
N
11.9
Era e paqendrueshme Era from LVL
Gusts 15.0 mph

Sot
High -- | Low -- °F
--% Chance of Precip.
Yesterday
High -- | Low -- °F
Precip. -- ne
Presioni 30.63 ne
Visioni -9999.0 milje
Clouds
Ftohtesia E erses 38 °F
Pika E Veses 28 °F
Lageshtira E ajrit 54%
Rainfall 0.00 ne
Snow Depth Not available.
6:58 AM 4:11 PM
First Quarter, 58% visible
METAR LYPG 080130Z 36004KT 320V030 CAVOK 02/M07 Q1037 NOSIG
Presioni 30.63 ne
Visioni -9999.0 milje
Clouds
Ftohtesia E erses 38 °F
Pika E Veses 28 °F
Lageshtira E ajrit 54%
Rainfall 0.00 ne
Snow Depth Not available.
6:58 AM 4:11 PM
First Quarter, 58% visible
METAR LYPG 080130Z 36004KT 320V030 CAVOK 02/M07 Q1037 NOSIG

10-Day Weather Forecast

×

Almanac

Astronomy

Dec. 08, 2016 Rise Set
Actual Time
Civil Twilight
Nautical Twilight
Astronomical Twilight
Moon
Length Of Visible Light
Length of Day
Tomorrow will be .
, % of the Moon is Illuminated

Today's Extremes

Country Highs Country Lows

Community

WunderPhotos

Upload Photos

1,956,259 photos uploaded!

WunderBlog® & News

Nearby

Air Quality

  Air Quality AQ Index Pollutant
Not available.

Snow Depth

Station Depth Elevation

Earthquake Activity

City Distance Mag. Time & Date
Minimum magnitude displayed is 2.5.

Coastal Water Temperatures

Vend Temperatura

Stations

Nearby Weather Stations

Station Location Temp Ftohtesia E erses Pika E Veses Lageshtira E ajrit Era Precip. Elev te freskuara(Te Dhenat) Type